Time;durP1;ratioP1;P1;durP2;ratioP2;P2;SDS_P1;SDS_P2;PMS_P1;PMS_P2;Temp;Humidity;BMP_temperature;BMP_pressure;BME280_temperature;BME280_humidity;BME280_pressure;Samples;Min_cycle;Max_cycle;Signal;HPM_P1;HPM_P2
2022/12/18 00:01:35;;;;;;;71.92;26.57;;;;;;;-4.16;74.47;101952.98;2012518;87;27733;-64
2022/12/18 00:04:37;;;;;;;64.40;24.55;;;;;;;-4.18;74.48;101949.41;2012290;88;28720;-64
2022/12/18 00:07:39;;;;;;;66.20;25.23;;;;;;;-4.20;74.45;101959.33;2012250;88;31106;-64
2022/12/18 00:10:40;;;;;;;59.55;24.92;;;;;;;-4.20;74.54;101952.78;2012616;88;33732;-64
2022/12/18 00:13:42;;;;;;;72.62;27.87;;;;;;;-4.22;74.58;101959.72;2012540;88;29335;-64
2022/12/18 00:16:46;;;;;;;80.42;29.77;;;;;;;-4.22;74.62;101959.72;2012622;88;27686;-64
2022/12/18 00:19:48;;;;;;;68.65;25.92;;;;;;;-4.23;74.67;101961.85;2012319;88;28654;-64
2022/12/18 00:22:49;;;;;;;80.80;28.55;;;;;;;-4.25;74.71;101963.08;2012762;88;31607;-64
2022/12/18 00:25:51;;;;;;;73.78;28.02;;;;;;;-4.26;74.72;101965.22;2012657;88;32962;-64
2022/12/18 00:28:53;;;;;;;76.00;27.15;;;;;;;-4.27;74.82;101974.81;2012765;88;29479;-62
2022/12/18 00:31:54;;;;;;;90.72;32.70;;;;;;;-4.27;74.85;101973.50;2012659;88;28260;-65
2022/12/18 00:34:56;;;;;;;73.62;28.02;;;;;;;-4.25;74.93;101972.23;2012738;88;29900;-64
2022/12/18 00:37:58;;;;;;;71.47;28.92;;;;;;;-4.26;74.87;101977.00;2012334;88;31929;-64
2022/12/18 00:41:01;;;;;;;72.70;28.77;;;;;;;-4.25;74.93;101985.32;2012866;88;33347;-64
2022/12/18 00:44:03;;;;;;;66.22;26.52;;;;;;;-4.27;74.91;101986.59;2012722;88;28777;-64
2022/12/18 00:47:05;;;;;;;76.33;26.93;;;;;;;-4.28;74.93;101988.72;2012853;88;28130;-64
2022/12/18 00:50:09;;;;;;;76.40;27.48;;;;;;;-4.28;75.02;101991.34;2004680;88;29140;-65
2022/12/18 00:53:11;;;;;;;73.95;28.70;;;;;;;-4.27;75.08;101998.36;1977374;90;31926;-64
2022/12/18 00:56:13;;;;;;;77.87;28.42;;;;;;;-4.27;75.13;102004.91;1977461;90;33027;-64
2022/12/18 00:59:16;;;;;;;65.03;27.75;;;;;;;-4.27;75.15;102000.98;1977369;90;29391;-65
2022/12/18 01:02:18;;;;;;;67.62;26.80;;;;;;;-4.25;75.13;102011.48;1976886;89;27676;-64
2022/12/18 01:05:20;;;;;;;71.77;26.82;;;;;;;-4.27;75.18;102017.98;1976352;90;28735;-64
2022/12/18 01:08:22;;;;;;;77.45;27.85;;;;;;;-4.27;75.14;102026.23;1977474;90;31615;-64
2022/12/18 01:11:23;;;;;;;66.40;24.72;;;;;;;-4.28;75.21;102033.20;1976707;89;34135;-63
2022/12/18 01:14:25;;;;;;;73.67;26.23;;;;;;;-4.25;75.31;102032.42;1976879;90;30491;-63
2022/12/18 01:17:27;;;;;;;70.30;25.72;;;;;;;-4.23;75.32;102035.99;1976822;90;28054;-63
2022/12/18 01:20:28;;;;;;;73.90;28.65;;;;;;;-4.22;75.35;102038.22;1977077;88;29287;-63
2022/12/18 01:23:30;;;;;;;74.22;27.70;;;;;;;-4.20;75.40;102041.75;1976716;90;31008;-63
2022/12/18 01:26:34;;;;;;;63.78;25.95;;;;;;;-4.19;75.45;102046.16;1976819;89;33195;-64
2022/12/18 01:29:35;;;;;;;71.42;26.77;;;;;;;-4.14;75.56;102048.55;1976872;88;30461;-63
2022/12/18 01:32:38;;;;;;;65.22;25.37;;;;;;;-4.13;75.48;102047.72;1976850;90;27845;-64
2022/12/18 01:35:43;;;;;;;70.75;26.75;;;;;;;-4.14;75.42;102051.16;1976661;90;29502;-64
2022/12/18 01:38:45;;;;;;;83.80;31.48;;;;;;;-4.12;75.49;102059.55;1976552;89;31053;-63
2022/12/18 01:42:02;;;;;;;96.28;33.45;;;;;;;-4.10;75.46;102055.70;1976450;89;33324;-63
2022/12/18 01:45:18;;;;;;;93.72;36.13;;;;;;;-4.14;75.35;102052.08;1976657;90;29693;-63
2022/12/18 01:48:21;;;;;;;98.95;31.73;;;;;;;-4.16;75.35;102063.30;1976081;90;27706;-63
2022/12/18 01:51:23;;;;;;;98.82;33.10;;;;;;;-4.20;75.36;102059.67;1989190;88;29307;-63
2022/12/18 01:54:28;;;;;;;87.92;32.42;;;;;;;-4.21;75.49;102056.98;2011197;88;32305;-63
2022/12/18 01:57:31;;;;;;;79.65;30.70;;;;;;;-4.18;75.48;102062.34;2011569;87;33433;-64
2022/12/18 02:00:35;;;;;;;86.37;29.27;;;;;;;-4.18;75.54;102063.64;2011766;88;29395;-63
2022/12/18 02:03:37;;;;;;;69.05;27.58;;;;;;;-4.19;75.59;102065.39;2012346;88;27662;-63
2022/12/18 02:06:41;;;;;;;74.58;27.30;;;;;;;-4.17;75.62;102074.20;2013114;87;28736;-63
2022/12/18 02:10:10;;;;;;;74.00;29.18;;;;;;;-4.15;75.65;102065.08;2012445;87;32275;-63
2022/12/18 02:13:55;;;;;;;70.83;27.73;;;;;;;-4.12;75.72;102064.78;2033573;87;33559;-63
2022/12/18 02:17:17;;;;;;;65.83;25.60;;;;;;;-4.09;75.73;102067.95;2032841;85;29378;-63
2022/12/18 02:20:43;;;;;;;67.20;26.70;;;;;;;-4.07;75.74;102069.31;2012832;88;28237;-64
2022/12/18 02:24:12;;;;;;;69.00;28.00;;;;;;;-4.08;75.72;102072.76;2012689;88;30288;-63
2022/12/18 02:27:15;;;;;;;72.05;27.58;;;;;;;-4.06;75.85;102076.33;2013160;88;32067;-63
2022/12/18 02:30:18;;;;;;;60.33;25.32;;;;;;;-4.04;75.85;102078.59;2012595;88;33407;-63
2022/12/18 02:33:21;;;;;;;72.10;27.05;;;;;;;-4.02;75.84;102074.31;2070569;85;29758;-63
2022/12/18 02:36:24;;;;;;;61.88;25.50;;;;;;;-4.02;75.76;102085.66;2033103;87;27689;-64
2022/12/18 02:39:27;;;;;;;68.52;25.25;;;;;;;-4.01;75.73;102087.88;2012793;88;28832;-63
2022/12/18 02:42:29;;;;;;;62.65;26.00;;;;;;;-3.99;75.82;102092.77;2070600;85;32213;-63
2022/12/18 02:45:31;;;;;;;66.70;26.77;;;;;;;-3.96;75.85;102096.79;2032878;87;32569;-64
2022/12/18 02:48:34;;;;;;;58.68;26.82;;;;;;;-3.94;75.87;102088.58;2012825;88;29726;-64
2022/12/18 02:51:47;;;;;;;60.88;25.68;;;;;;;-3.90;75.97;102099.66;2030688;87;27563;-64
2022/12/18 02:55:18;;;;;;;62.43;25.40;;;;;;;-3.86;76.04;102093.72;2030956;87;29121;-64
2022/12/18 02:58:51;;;;;;;64.58;26.23;;;;;;;-3.82;76.02;102086.86;2030777;87;31166;-64
2022/12/18 03:02:00;;;;;;;60.80;24.82;;;;;;;-3.80;75.94;102089.12;2031013;87;33327;-64
2022/12/18 03:05:18;;;;;;;62.43;24.45;;;;;;;-3.78;75.87;102097.94;2035311;87;30476;-64
2022/12/18 03:08:23;;;;;;;62.10;25.68;;;;;;;-3.80;75.79;102094.80;2035378;87;27694;-64
2022/12/18 03:12:22;;;;;;;;;;;;;;;-3.79;75.91;102093.53;2037706;87;28700;-63
2022/12/18 03:14:31;;;;;;;64.37;26.17;;;;;;;-3.76;76.02;102094.05;2010407;88;31284;-63
2022/12/18 03:17:33;;;;;;;69.60;26.93;;;;;;;-3.75;76.00;102097.16;2035180;87;32651;-64
2022/12/18 03:20:37;;;;;;;71.10;26.97;;;;;;;-3.75;75.82;102103.70;2035513;87;29664;-63
2022/12/18 03:23:42;;;;;;;58.73;23.12;;;;;;;-3.73;75.94;102108.19;2035250;87;27706;-63
2022/12/18 03:26:48;;;;;;;64.87;25.90;;;;;;;-3.72;75.89;102109.06;2034770;87;29530;-63
2022/12/18 03:30:10;;;;;;;62.85;25.40;;;;;;;-3.70;75.94;102111.33;2035026;87;31049;-64
2022/12/18 03:33:47;;;;;;;62.53;25.23;;;;;;;-3.70;75.89;102110.02;2034706;87;33877;-63
2022/12/18 03:36:49;;;;;;;60.15;22.73;;;;;;;-3.69;75.89;102119.23;2034790;87;30694;-63
2022/12/18 03:39:51;;;;;;;60.63;24.77;;;;;;;-3.65;76.00;102121.58;2035004;87;27659;-64
2022/12/18 03:43:03;;;;;;;48.58;21.90;;;;;;;-3.63;75.93;102113.77;2035024;87;28727;-63
2022/12/18 03:46:10;;;;;;;67.78;25.20;;;;;;;-3.64;75.74;102120.73;1985738;89;31765;-63
2022/12/18 03:49:29;;;;;;;57.88;24.60;;;;;;;-3.64;75.73;102115.91;1987724;89;33771;-64
2022/12/18 03:52:39;;;;;;;55.48;23.27;;;;;;;-3.67;75.65;102120.62;1986916;89;30498;-64
2022/12/18 03:55:41;;;;;;;61.08;22.00;;;;;;;-3.69;75.70;102119.66;1988056;89;27761;-63
2022/12/18 03:58:43;;;;;;;51.13;23.20;;;;;;;-3.68;75.71;102123.63;1988324;89;29068;-63
2022/12/18 04:01:49;;;;;;;59.30;23.25;;;;;;;-3.68;75.71;102128.00;1996755;89;32194;-63
2022/12/18 04:04:53;;;;;;;58.55;24.75;;;;;;;-3.68;75.68;102126.69;2003374;88;34219;-63
2022/12/18 04:07:55;;;;;;;70.57;25.15;;;;;;;-3.72;75.54;102133.94;2033349;87;29775;-64
2022/12/18 04:10:57;;;;;;;57.93;25.55;;;;;;;-3.73;75.66;102134.38;2032527;87;27598;-63
2022/12/18 04:13:59;;;;;;;65.35;25.48;;;;;;;-3.69;75.85;102144.55;2065167;86;29903;-63
2022/12/18 04:17:01;;;;;;;56.60;24.55;;;;;;;-3.68;75.88;102141.97;2031122;87;31026;-63
2022/12/18 04:20:04;;;;;;;58.65;25.82;;;;;;;-3.66;75.87;102144.67;2065237;86;32965;-64
2022/12/18 04:23:06;;;;;;;57.95;24.70;;;;;;;-3.64;75.87;102146.94;2030683;87;30111;-64
2022/12/18 04:26:08;;;;;;;64.22;24.75;;;;;;;-3.63;75.84;102152.62;2065406;86;27839;-64
2022/12/18 04:29:10;;;;;;;64.87;26.05;;;;;;;-3.62;75.89;102153.09;2030769;87;28616;-63
2022/12/18 04:32:11;;;;;;;67.30;26.42;;;;;;;-3.60;75.89;102154.48;2065177;86;32363;-63
2022/12/18 04:35:13;;;;;;;68.62;26.17;;;;;;;-3.56;75.90;102165.13;2030385;87;33418;-63
2022/12/18 04:38:15;;;;;;;61.83;24.82;;;;;;;-3.55;75.88;102160.77;2065092;86;30448;-63
2022/12/18 04:41:17;;;;;;;60.50;25.12;;;;;;;-3.55;75.76;102164.70;2065181;86;27700;-63
2022/12/18 04:44:18;;;;;;;59.33;25.62;;;;;;;-3.57;75.68;102165.97;2030804;87;30075;-63
2022/12/18 04:47:20;;;;;;;58.90;23.50;;;;;;;-3.58;75.70;102175.09;2065015;86;31076;-63
2022/12/18 04:50:22;;;;;;;63.35;24.77;;;;;;;-3.59;75.64;102179.84;2064996;86;34208;-63
2022/12/18 04:53:24;;;;;;;53.15;24.47;;;;;;;-3.58;75.68;102181.64;2030869;87;29720;-63
2022/12/18 04:56:25;;;;;;;61.23;23.62;;;;;;;-3.60;75.63;102193.34;2065251;86;27700;-64
2022/12/18 04:59:27;;;;;;;55.95;23.27;;;;;;;-3.60;75.71;102193.77;2030814;87;28709;-63
2022/12/18 05:02:29;;;;;;;54.95;23.67;;;;;;;-3.58;75.80;102195.61;2064539;85;32126;-62
2022/12/18 05:05:30;;;;;;;59.83;23.22;;;;;;;-3.54;75.88;102199.23;2020375;88;32955;-62
2022/12/18 05:08:32;;;;;;;58.45;23.38;;;;;;;-3.53;75.61;102197.09;2020776;87;29716;-63
2022/12/18 05:11:36;;;;;;;59.77;23.45;;;;;;;-3.54;75.60;102201.85;2021053;87;27629;-63
2022/12/18 05:14:38;;;;;;;50.90;22.85;;;;;;;-3.55;75.42;102201.38;1979798;89;29125;-63
2022/12/18 05:17:39;;;;;;;56.75;23.27;;;;;;;-3.61;75.30;102205.08;1980048;89;32353;-62
2022/12/18 05:20:41;;;;;;;58.68;25.05;;;;;;;-3.61;75.60;102195.48;1980028;89;33821;-63
2022/12/18 05:23:42;;;;;;;57.25;24.90;;;;;;;-3.61;75.55;102195.48;1980083;89;30639;-63
2022/12/18 05:26:44;;;;;;;61.63;25.92;;;;;;;-3.59;75.73;102204.30;1980144;89;27635;-64
2022/12/18 05:29:45;;;;;;;57.50;22.98;;;;;;;-3.59;75.49;102204.73;1979746;89;29304;-64
2022/12/18 05:32:51;;;;;;;55.98;23.65;;;;;;;-3.63;75.50;102208.05;1979699;89;32250;-64
2022/12/18 05:35:56;;;;;;;51.95;23.10;;;;;;;-3.64;75.40;102208.88;1980188;89;33360;-62
2022/12/18 05:38:58;;;;;;;60.00;24.55;;;;;;;-3.63;75.44;102211.55;1980047;89;29357;-63
2022/12/18 05:41:59;;;;;;;69.90;24.98;;;;;;;-3.64;75.46;102211.11;1980077;89;27763;-63
2022/12/18 05:45:01;;;;;;;60.63;25.12;;;;;;;-3.64;75.50;102212.81;1980057;89;28727;-63
2022/12/18 05:48:03;;;;;;;56.73;23.67;;;;;;;-3.66;75.30;102212.34;1978277;89;32282;-63
2022/12/18 05:51:10;;;;;;;61.92;24.98;;;;;;;-3.69;75.21;102209.59;1995762;89;33786;-64
2022/12/18 05:54:12;;;;;;;64.97;25.30;;;;;;;-3.68;75.38;102220.97;2020681;88;29674;-63
2022/12/18 05:57:13;;;;;;;65.37;25.80;;;;;;;-3.69;75.44;102227.92;2020828;87;27738;-63
2022/12/18 06:00:16;;;;;;;57.08;24.47;;;;;;;-3.68;75.45;102240.19;2020346;87;28684;-63
2022/12/18 06:03:18;;;;;;;58.35;24.90;;;;;;;-3.67;75.44;102251.14;2020528;86;31884;-64
2022/12/18 06:06:26;;;;;;;55.65;23.42;;;;;;;-3.67;75.41;102248.95;1978061;89;33061;-64
2022/12/18 06:09:29;;;;;;;58.85;24.90;;;;;;;-3.68;75.30;102259.83;1995880;89;29319;-64
2022/12/18 06:12:30;;;;;;;67.97;26.07;;;;;;;-3.70;75.22;102260.61;2027632;87;27680;-64
2022/12/18 06:15:38;;;;;;;57.53;23.92;;;;;;;-3.70;75.37;102254.94;2000709;88;29671;-64
2022/12/18 06:18:40;;;;;;;53.28;21.73;;;;;;;-3.70;75.34;102257.99;1980378;89;31407;-64
2022/12/18 06:21:42;;;;;;;53.30;22.82;;;;;;;-3.71;75.07;102269.30;1979835;89;34164;-64
2022/12/18 06:24:43;;;;;;;61.25;24.05;;;;;;;-3.74;75.11;102274.00;1980116;89;29759;-64
2022/12/18 06:27:47;;;;;;;56.77;23.50;;;;;;;-3.74;75.13;102275.31;1980179;89;27851;-64
2022/12/18 06:30:49;;;;;;;60.80;26.25;;;;;;;-3.75;75.12;102290.55;1980129;89;28689;-65
2022/12/18 06:33:51;;;;;;;61.90;25.08;;;;;;;-3.75;75.09;102289.63;1979807;89;31110;-64
2022/12/18 06:36:53;;;;;;;58.78;25.75;;;;;;;-3.80;74.82;102285.52;1979841;89;33791;-64
2022/12/18 06:39:56;;;;;;;56.28;24.92;;;;;;;-3.84;74.99;102288.44;1979900;89;30149;-64
2022/12/18 06:42:58;;;;;;;69.07;26.55;;;;;;;-3.82;75.05;102298.97;1980143;89;27928;-64
2022/12/18 06:46:00;;;;;;;64.05;27.82;;;;;;;-3.83;75.09;102303.72;1979971;89;28712;-64
2022/12/18 06:49:02;;;;;;;60.28;27.62;;;;;;;-3.84;74.98;102305.45;1979990;89;31896;-64
2022/12/18 06:52:04;;;;;;;67.62;28.92;;;;;;;-3.88;74.79;102309.17;1980062;89;32950;-64
2022/12/18 06:55:10;;;;;;;70.08;30.10;;;;;;;-3.89;74.82;102308.72;1980130;89;29331;-62
2022/12/18 06:58:12;;;;;;;74.40;29.25;;;;;;;-3.92;74.72;102314.70;1980432;89;27603;-62
2022/12/18 07:01:14;;;;;;;71.82;29.07;;;;;;;-3.94;74.79;102318.97;1979792;89;28691;-63
2022/12/18 07:04:15;;;;;;;75.90;31.15;;;;;;;-3.97;74.76;102324.98;1987842;88;30922;-64
2022/12/18 07:07:17;;;;;;;66.25;29.87;;;;;;;-3.98;74.86;102312.72;2032886;87;33418;-64
2022/12/18 07:10:19;;;;;;;68.67;31.80;;;;;;;-3.96;74.94;102314.08;2032608;87;29519;-65
2022/12/18 07:13:20;;;;;;;75.70;31.95;;;;;;;-3.96;74.89;102314.08;2065300;86;27589;-65
2022/12/18 07:16:22;;;;;;;70.80;28.67;;;;;;;-3.93;74.73;102323.81;2065105;86;28637;-65
2022/12/18 07:19:24;;;;;;;80.20;32.25;;;;;;;-3.95;74.70;102334.20;2030671;87;31036;-65
2022/12/18 07:22:26;;;;;;;71.90;31.27;;;;;;;-3.95;74.62;102338.55;2065207;86;33703;-65
2022/12/18 07:25:28;;;;;;;74.72;32.35;;;;;;;-3.97;74.62;102336.76;2030685;87;29349;-63
2022/12/18 07:28:29;;;;;;;71.45;31.73;;;;;;;-3.98;74.70;102340.20;2065591;86;28207;-63
2022/12/18 07:31:31;;;;;;;78.17;31.73;;;;;;;-3.97;74.73;102338.07;2030679;87;29681;-62
2022/12/18 07:34:33;;;;;;;74.95;31.30;;;;;;;-3.96;74.66;102338.95;2065025;86;32039;-63
2022/12/18 07:37:34;;;;;;;80.80;34.58;;;;;;;-3.92;74.83;102345.23;2030887;87;34134;-63
2022/12/18 07:40:36;;;;;;;78.12;33.02;;;;;;;-3.88;74.86;102345.82;2065340;86;30463;-65
2022/12/18 07:43:39;;;;;;;81.97;34.30;;;;;;;-3.84;74.98;102355.21;2065426;86;27701;-63
2022/12/18 07:46:40;;;;;;;82.60;35.17;;;;;;;-3.82;74.76;102364.03;2030771;87;29495;-64
2022/12/18 07:49:42;;;;;;;88.87;35.03;;;;;;;-3.80;74.67;102364.08;2065338;86;32165;-65
2022/12/18 07:52:43;;;;;;;87.60;36.60;;;;;;;-3.77;74.76;102360.69;2030902;87;32973;-63
2022/12/18 07:55:45;;;;;;;87.12;37.30;;;;;;;-3.76;74.47;102367.72;2045901;86;29299;-64
2022/12/18 07:58:47;;;;;;;98.15;40.10;;;;;;;-3.75;74.55;102367.80;2030988;87;27599;-63
2022/12/18 08:01:48;;;;;;;88.20;37.90;;;;;;;-3.73;74.42;102356.98;2064941;86;30120;-64
2022/12/18 08:04:50;;;;;;;91.97;39.73;;;;;;;-3.71;74.59;102356.61;2031763;87;31463;-64
2022/12/18 08:07:54;;;;;;;90.53;38.10;;;;;;;-3.64;74.74;102366.05;2033928;87;27969;-64
2022/12/18 08:10:58;;;;;;;91.65;37.65;;;;;;;-3.57;74.66;102372.92;2013400;88;29902;-63
2022/12/18 08:13:59;;;;;;;83.17;37.85;;;;;;;-3.54;74.51;102379.60;2034761;87;27666;-63
2022/12/18 08:17:01;;;;;;;89.25;36.25;;;;;;;-3.50;74.47;102381.92;2013253;88;29814;-63
2022/12/18 08:20:04;;;;;;;84.28;35.92;;;;;;;-3.49;74.19;102384.15;2034537;87;31174;-64
2022/12/18 08:23:06;;;;;;;77.22;35.40;;;;;;;-3.49;74.24;102390.70;2012822;88;34306;-63
2022/12/18 08:26:08;;;;;;;80.47;35.80;;;;;;;-3.44;74.31;102393.98;2034474;87;29978;-64
2022/12/18 08:29:10;;;;;;;76.10;34.23;;;;;;;-3.40;74.42;102397.62;2012954;88;27718;-64
2022/12/18 08:32:12;;;;;;;79.72;34.35;;;;;;;-3.33;74.42;102401.39;2034315;87;28690;-63
2022/12/18 08:35:13;;;;;;;91.02;39.30;;;;;;;-3.30;74.26;102401.52;2029701;86;31064;-64
2022/12/18 08:38:15;;;;;;;119.25;60.03;;;;;;;-3.25;74.26;102403.50;2034982;87;33316;-64
2022/12/18 08:41:18;;;;;;;81.55;42.78;;;;;;;-3.22;74.21;102413.20;2013112;88;30645;-64
2022/12/18 08:44:38;;;;;;;77.58;39.50;;;;;;;-3.20;74.08;102422.03;2034598;87;27661;-63
2022/12/18 08:47:40;;;;;;;72.65;32.05;;;;;;;-3.17;74.20;102426.09;2012957;88;28701;-62
2022/12/18 08:50:41;;;;;;;69.40;32.08;;;;;;;-3.13;73.94;102428.42;2034434;87;31458;-63
2022/12/18 08:53:44;;;;;;;62.65;29.70;;;;;;;-3.14;73.76;102424.92;2012732;88;34342;-64
2022/12/18 08:56:46;;;;;;;69.70;33.10;;;;;;;-3.12;73.89;102436.37;2034378;87;30479;-64
2022/12/18 08:59:48;;;;;;;65.50;33.90;;;;;;;-3.09;74.07;102432.97;2013121;87;27626;-63
2022/12/18 09:02:49;;;;;;;62.85;29.48;;;;;;;-3.03;73.86;102428.39;2035321;87;29113;-63
2022/12/18 09:05:51;;;;;;;92.53;41.42;;;;;;;-3.03;73.73;102423.14;2004355;88;31935;-64
2022/12/18 09:08:53;;;;;;;113.35;51.75;;;;;;;-3.01;73.75;102421.09;2022342;87;34199;-63
2022/12/18 09:11:55;;;;;;;120.42;50.52;;;;;;;-3.05;73.45;102426.59;1992987;89;30511;-63
2022/12/18 09:14:56;;;;;;;82.17;38.42;;;;;;;-3.03;73.61;102425.37;1993095;89;27764;-63
2022/12/18 09:17:58;;;;;;;62.93;29.12;;;;;;;-3.01;73.45;102413.61;1992799;89;29274;-62
2022/12/18 09:20:59;;;;;;;61.33;28.83;;;;;;;-2.96;73.64;102401.16;1992993;89;31413;-61
2022/12/18 09:24:01;;;;;;;57.08;25.77;;;;;;;-2.88;73.53;102392.29;1992773;89;34128;-63
2022/12/18 09:27:03;;;;;;;52.35;26.30;;;;;;;-2.83;73.08;102398.63;1991790;87;30514;-62
2022/12/18 09:30:08;;;;;;;59.73;27.25;;;;;;;-2.82;72.54;102395.60;1977963;88;27681;-62
2022/12/18 09:33:09;;;;;;;;;;;;;;;-2.76;72.55;102382.70;1977944;88;28673;-63
2022/12/18 09:36:14;;;;;;;61.63;26.77;;;;;;;-2.70;72.80;102378.11;1981897;88;31906;-62
2022/12/18 09:39:16;;;;;;;57.15;27.60;;;;;;;-2.62;72.79;102374.07;1984487;88;35090;-63
2022/12/18 09:42:21;;;;;;;59.83;28.52;;;;;;;-2.54;72.49;102374.36;2038026;86;30188;-64
2022/12/18 09:45:24;;;;;;;63.92;28.38;;;;;;;-2.49;72.46;102361.01;2030574;86;28144;-64
2022/12/18 09:48:30;;;;;;;58.80;28.62;;;;;;;-2.41;72.33;102367.42;2030725;86;29060;-63
2022/12/18 09:51:44;;;;;;;58.58;28.15;;;;;;;-2.34;72.38;102361.98;2004766;87;31101;-62
2022/12/18 09:55:04;;;;;;;59.23;29.98;;;;;;;-2.31;72.08;102358.16;2010060;87;33013;-62
2022/12/18 09:58:13;;;;;;;58.05;28.02;;;;;;;-2.18;72.51;102363.45;2001630;87;29390;-63
2022/12/18 10:01:20;;;;;;;54.25;26.25;;;;;;;-2.07;71.83;102354.22;2010502;87;27801;-63
2022/12/18 10:04:23;;;;;;;53.98;26.15;;;;;;;-2.04;71.52;102356.05;2012901;87;28896;-63
2022/12/18 10:07:51;;;;;;;54.88;27.93;;;;;;;-2.01;71.40;102360.10;2012741;87;31150;-63
2022/12/18 10:10:57;;;;;;;54.65;26.97;;;;;;;-2.02;71.04;102357.91;2012388;86;33439;-61
2022/12/18 10:14:15;;;;;;;55.17;28.65;;;;;;;-2.04;71.17;102363.52;2012487;87;28370;-62
2022/12/18 10:17:25;;;;;;;53.95;27.45;;;;;;;-1.98;71.12;102361.53;2012589;87;27730;-63
2022/12/18 10:20:44;;;;;;;56.83;30.25;;;;;;;-2.05;70.42;102383.14;2012391;86;30816;-62
2022/12/18 10:24:13;;;;;;;62.17;30.45;;;;;;;-2.09;71.01;102370.33;2011958;87;32208;-61
2022/12/18 10:27:18;;;;;;;55.73;28.27;;;;;;;-2.04;70.97;102373.12;1987975;87;35184;-64
2022/12/18 10:30:22;;;;;;;;;;;;;;;-1.96;70.74;102383.90;2015327;87;29094;-62
2022/12/18 10:33:30;;;;;;;50.12;23.85;;;;;;;-1.95;70.39;102380.03;2043697;85;27729;-65
2022/12/18 10:36:31;;;;;;;57.05;28.23;;;;;;;-2.06;69.86;102374.80;2043919;85;29485;-64
2022/12/18 10:39:34;;;;;;;65.60;28.77;;;;;;;-2.15;70.33;102374.07;2043104;85;31961;-63
2022/12/18 10:42:36;;;;;;;60.70;31.52;;;;;;;-2.09;70.86;102364.20;2043635;85;33129;-64
2022/12/18 10:45:39;;;;;;;63.90;32.10;;;;;;;-2.05;70.84;102372.23;2043605;85;30659;-62
2022/12/18 10:48:49;;;;;;;63.75;31.33;;;;;;;-1.96;70.96;102372.08;2016098;86;27669;-63
2022/12/18 10:51:51;;;;;;;63.10;30.45;;;;;;;-1.88;70.80;102374.14;2035363;85;29702;-63
2022/12/18 10:55:01;;;;;;;63.75;31.17;;;;;;;-1.81;71.08;102374.37;2043795;85;31429;-62
2022/12/18 10:58:38;;;;;;;62.20;30.23;;;;;;;-1.76;70.95;102378.94;2043427;85;33942;-63
2022/12/18 11:01:57;;;;;;;61.65;28.45;;;;;;;-1.69;70.72;102370.84;2023784;85;29349;-64
2022/12/18 11:05:00;;;;;;;65.65;31.10;;;;;;;-1.67;70.28;102374.42;2042454;85;27680;-63
2022/12/18 11:08:02;;;;;;;69.05;31.70;;;;;;;-1.63;70.64;102378.04;2006514;87;30102;-64
2022/12/18 11:11:18;;;;;;;60.33;30.37;;;;;;;-1.55;70.69;102376.15;2012356;86;31759;-63
2022/12/18 11:14:29;;;;;;;62.35;31.10;;;;;;;-1.56;69.65;102377.42;2030212;86;35138;-63
2022/12/18 11:17:34;;;;;;;57.75;28.23;;;;;;;-1.68;69.68;102392.34;2033960;86;29344;-68
2022/12/18 11:20:36;;;;;;;61.80;29.95;;;;;;;-1.77;69.15;102390.28;2028776;86;27722;-64
2022/12/18 11:23:51;;;;;;;57.62;28.65;;;;;;;-1.82;69.39;102394.91;2010553;87;29915;-65
2022/12/18 11:26:52;;;;;;;57.60;27.75;;;;;;;-1.88;69.16;102402.16;2000584;87;31459;-67
2022/12/18 11:30:08;;;;;;;59.30;27.67;;;;;;;-1.88;69.39;102409.60;2010753;87;34176;-65
2022/12/18 11:33:21;;;;;;;62.13;28.55;;;;;;;-1.87;69.27;102406.14;2028872;86;29796;-62
2022/12/18 11:36:24;;;;;;;72.70;32.10;;;;;;;-1.93;69.12;102402.00;2030503;86;27678;-63
2022/12/18 11:39:46;;;;;;;63.23;29.10;;;;;;;-1.94;69.75;102401.52;1942435;87;29519;-65
2022/12/18 11:42:59;;;;;;;71.12;31.55;;;;;;;-1.94;69.23;102399.30;2010898;87;31414;-66
2022/12/18 11:46:24;;;;;;;70.35;32.40;;;;;;;-1.95;69.60;102401.45;2001147;87;33308;-62
2022/12/18 11:49:35;;;;;;;76.45;33.30;;;;;;;-1.89;69.60;102391.17;2010793;87;29462;-63
2022/12/18 11:52:40;;;;;;;72.22;32.30;;;;;;;-1.87;69.45;102387.75;2000297;87;28576;-63
2022/12/18 11:56:07;;;;;;;60.50;28.60;;;;;;;-1.93;68.95;102372.20;2011242;87;29484;-62
2022/12/18 11:59:43;;;;;;;64.20;30.70;;;;;;;-1.95;68.78;102369.53;2001985;87;31460;-64
2022/12/18 12:03:09;;;;;;;;;;;;;;;-2.11;68.52;102373.32;2013613;87;33041;-65
2022/12/18 12:06:28;;;;;;;71.80;31.82;;;;;;;-2.23;68.68;102376.81;2012181;87;30500;-65
2022/12/18 12:09:53;;;;;;;72.92;32.23;;;;;;;-2.35;69.03;102379.88;2022030;86;27764;-66
2022/12/18 12:13:15;;;;;;;99.53;48.03;;;;;;;-2.36;69.15;102383.34;2002299;87;29941;-65
2022/12/18 12:16:25;;;;;;;69.22;32.75;;;;;;;-2.36;69.38;102379.00;1990210;88;32367;-65
2022/12/18 12:19:47;;;;;;;88.78;36.45;;;;;;;-2.34;69.10;102376.02;1976129;88;34244;-64
2022/12/18 12:23:03;;;;;;;81.42;35.35;;;;;;;-2.33;69.29;102380.42;1977849;88;29735;-64
2022/12/18 12:26:19;;;;;;;80.60;38.00;;;;;;;-2.33;69.33;102378.20;1967383;88;27928;-63
2022/12/18 12:29:29;;;;;;;68.72;32.33;;;;;;;-2.30;69.43;102371.77;1936441;91;31376;-61
2022/12/18 12:32:39;;;;;;;74.22;35.88;;;;;;;-2.29;68.98;102366.98;1934492;91;30980;-65
2022/12/18 12:35:58;;;;;;;72.45;33.45;;;;;;;-2.34;69.01;102361.98;1946259;91;33040;-63
2022/12/18 12:39:03;;;;;;;79.32;34.00;;;;;;;-2.41;68.93;102364.80;1946235;91;29559;-64
2022/12/18 12:45:34;;;;;;;68.20;31.87;;;;;;;-2.45;69.35;102369.05;1991785;88;29061;-64
2022/12/18 12:48:55;;;;;;;68.55;28.55;;;;;;;-2.52;69.07;102367.02;1981241;88;31865;-65
2022/12/18 12:52:13;;;;;;;69.90;31.82;;;;;;;-2.54;69.02;102374.36;2006699;88;32981;-65
2022/12/18 12:55:28;;;;;;;73.55;33.38;;;;;;;-2.64;69.23;102370.05;1981022;89;29778;-64
2022/12/18 12:59:09;;;;;;;74.10;32.93;;;;;;;-2.73;69.19;102363.16;2007093;88;27737;-64
2022/12/18 13:02:24;;;;;;;64.95;28.77;;;;;;;-2.80;69.30;102363.73;1981154;89;28878;-65
2022/12/18 13:05:53;;;;;;;73.42;31.68;;;;;;;-2.87;69.22;102370.48;2006477;88;32033;-65
2022/12/18 13:08:57;;;;;;;84.40;33.48;;;;;;;-2.92;69.40;102373.36;1980908;89;34412;-64
2022/12/18 13:15:45;;;;;;;87.35;36.88;;;;;;;-2.86;69.78;102361.78;1982278;89;27685;-65
2022/12/18 13:18:56;;;;;;;88.45;33.98;;;;;;;-2.82;69.77;102368.06;2031927;86;28472;-63
2022/12/18 13:21:58;;;;;;;71.33;31.33;;;;;;;-2.84;69.64;102366.67;2031638;87;31024;-61
2022/12/18 13:25:02;;;;;;;71.50;29.32;;;;;;;-2.88;69.43;102363.44;2004048;87;33008;-62
2022/12/18 13:28:16;;;;;;;76.95;32.83;;;;;;;-3.00;69.28;102362.97;2006897;88;30070;-63
2022/12/18 13:31:41;;;;;;;62.98;27.98;;;;;;;-3.12;69.55;102368.60;2006894;88;27739;-62
2022/12/18 13:34:44;;;;;;;75.90;34.70;;;;;;;-3.14;69.75;102366.37;2000134;89;29454;-63
2022/12/18 13:37:55;;;;;;;74.95;35.05;;;;;;;-3.15;69.84;102364.58;1999913;88;32493;-63
2022/12/18 13:41:00;;;;;;;73.15;31.65;;;;;;;-3.15;69.97;102366.77;1996666;89;33020;-64
2022/12/18 13:44:23;;;;;;;;;;;;;;;-3.20;69.78;102372.23;2014590;87;29710;-63
2022/12/18 13:47:37;;;;;;;60.88;27.20;;;;;;;-3.26;69.83;102382.48;1974173;90;28317;-62
2022/12/18 13:50:39;;;;;;;75.37;32.20;;;;;;;-3.31;69.92;102385.31;1923419;91;28766;-64
2022/12/18 13:53:51;;;;;;;75.45;33.08;;;;;;;-3.37;70.05;102392.09;1943985;91;31410;-63
2022/12/18 13:56:55;;;;;;;68.92;32.05;;;;;;;-3.38;70.15;102397.27;1943509;91;48429;-65
2022/12/18 13:59:59;;;;;;;83.75;32.48;;;;;;;-3.40;70.16;102409.41;1967962;90;30699;-62
2022/12/18 14:03:01;;;;;;;69.05;30.15;;;;;;;-3.45;70.13;102407.92;1950729;90;27829;-66
2022/12/18 14:06:07;;;;;;;88.27;34.23;;;;;;;-3.48;70.13;102401.66;1962126;90;28959;-64
2022/12/18 14:09:13;;;;;;;70.70;31.95;;;;;;;-3.54;70.24;102400.96;1965793;90;32065;-63
2022/12/18 14:15:43;;;;;;;55.30;24.10;;;;;;;-3.72;70.20;102408.51;1987739;88;30334;-63
2022/12/18 14:18:58;;;;;;;83.27;36.70;;;;;;;-3.77;70.39;102415.30;1943887;91;28452;-63